sensor_id;sensor_type;location;lat;lon;timestamp;pressure;altitude;pressure_sealevel;temperature;humidity
20350;BME280;10332;50.208;18.988;2023-02-12T00:01:26;99250.44;;;5.87;100.00
20350;BME280;10332;50.208;18.988;2023-02-12T00:03:56;99255.50;;;5.92;100.00
20350;BME280;10332;50.208;18.988;2023-02-12T00:06:24;99257.25;;;5.91;100.00
20350;BME280;10332;50.208;18.988;2023-02-12T00:08:56;99264.19;;;5.91;100.00
20350;BME280;10332;50.208;18.988;2023-02-12T00:11:27;99264.06;;;5.95;100.00
20350;BME280;10332;50.208;18.988;2023-02-12T00:13:56;99269.19;;;5.97;100.00
20350;BME280;10332;50.208;18.988;2023-02-12T00:16:27;99258.78;;;5.98;100.00
20350;BME280;10332;50.208;18.988;2023-02-12T00:18:58;99261.53;;;5.92;100.00
20350;BME280;10332;50.208;18.988;2023-02-12T00:21:25;99263.16;;;5.96;100.00
20350;BME280;10332;50.208;18.988;2023-02-12T00:23:54;99265.88;;;5.92;100.00
20350;BME280;10332;50.208;18.988;2023-02-12T00:26:22;99261.47;;;5.95;100.00
20350;BME280;10332;50.208;18.988;2023-02-12T00:28:51;99267.50;;;5.96;100.00
20350;BME280;10332;50.208;18.988;2023-02-12T00:31:24;99271.84;;;5.95;100.00
20350;BME280;10332;50.208;18.988;2023-02-12T00:33:52;99275.28;;;5.96;100.00
20350;BME280;10332;50.208;18.988;2023-02-12T00:36:24;99269.28;;;5.94;100.00
20350;BME280;10332;50.208;18.988;2023-02-12T00:38:54;99270.84;;;6.00;100.00
20350;BME280;10332;50.208;18.988;2023-02-12T00:41:22;99271.72;;;5.98;100.00
20350;BME280;10332;50.208;18.988;2023-02-12T00:43:50;99277.88;;;5.96;100.00
20350;BME280;10332;50.208;18.988;2023-02-12T00:46:18;99275.94;;;6.03;100.00
20350;BME280;10332;50.208;18.988;2023-02-12T00:48:46;99283.72;;;6.03;100.00
20350;BME280;10332;50.208;18.988;2023-02-12T00:51:14;99281.25;;;5.98;100.00
20350;BME280;10332;50.208;18.988;2023-02-12T00:53:42;99275.00;;;6.05;100.00
20350;BME280;10332;50.208;18.988;2023-02-12T00:56:09;99282.78;;;6.05;100.00
20350;BME280;10332;50.208;18.988;2023-02-12T00:58:37;99265.41;;;6.07;100.00
20350;BME280;10332;50.208;18.988;2023-02-12T01:01:04;99283.78;;;6.00;100.00
20350;BME280;10332;50.208;18.988;2023-02-12T01:03:32;99281.81;;;6.08;100.00
20350;BME280;10332;50.208;18.988;2023-02-12T01:06:00;99290.31;;;6.13;100.00
20350;BME280;10332;50.208;18.988;2023-02-12T01:08:27;99290.66;;;6.01;100.00
20350;BME280;10332;50.208;18.988;2023-02-12T01:11:00;99293.09;;;6.07;100.00
20350;BME280;10332;50.208;18.988;2023-02-12T01:13:29;99295.44;;;6.14;100.00
20350;BME280;10332;50.208;18.988;2023-02-12T01:16:22;99300.88;;;6.07;100.00
20350;BME280;10332;50.208;18.988;2023-02-12T01:18:52;99301.09;;;5.99;100.00
20350;BME280;10332;50.208;18.988;2023-02-12T01:21:30;99292.25;;;6.06;100.00
20350;BME280;10332;50.208;18.988;2023-02-12T01:23:58;99296.41;;;6.12;100.00
20350;BME280;10332;50.208;18.988;2023-02-12T01:26:27;99299.13;;;6.07;100.00
20350;BME280;10332;50.208;18.988;2023-02-12T01:29:06;99298.28;;;6.07;100.00
20350;BME280;10332;50.208;18.988;2023-02-12T01:31:38;99310.22;;;6.11;100.00
20350;BME280;10332;50.208;18.988;2023-02-12T01:34:07;99309.16;;;6.18;100.00
20350;BME280;10332;50.208;18.988;2023-02-12T01:36:35;99302.16;;;6.21;100.00
20350;BME280;10332;50.208;18.988;2023-02-12T01:39:04;99314.16;;;6.24;100.00
20350;BME280;10332;50.208;18.988;2023-02-12T01:41:37;99309.81;;;6.24;100.00
20350;BME280;10332;50.208;18.988;2023-02-12T01:46:33;99320.47;;;6.15;100.00
20350;BME280;10332;50.208;18.988;2023-02-12T01:49:03;99316.94;;;6.18;100.00
20350;BME280;10332;50.208;18.988;2023-02-12T01:51:33;99316.25;;;6.13;100.00
20350;BME280;10332;50.208;18.988;2023-02-12T01:54:05;99313.72;;;6.10;100.00
20350;BME280;10332;50.208;18.988;2023-02-12T01:56:35;99320.53;;;6.14;100.00
20350;BME280;10332;50.208;18.988;2023-02-12T01:59:02;99329.22;;;6.13;100.00
20350;BME280;10332;50.208;18.988;2023-02-12T02:01:32;99334.50;;;6.08;100.00
20350;BME280;10332;50.208;18.988;2023-02-12T02:04:09;99337.25;;;6.04;100.00
20350;BME280;10332;50.208;18.988;2023-02-12T02:06:48;99323.28;;;6.08;100.00
20350;BME280;10332;50.208;18.988;2023-02-12T02:09:19;99329.91;;;6.18;100.00
20350;BME280;10332;50.208;18.988;2023-02-12T02:11:46;99341.84;;;6.23;100.00
20350;BME280;10332;50.208;18.988;2023-02-12T02:14:33;99340.22;;;6.19;100.00
20350;BME280;10332;50.208;18.988;2023-02-12T02:31:10;99356.91;;;6.11;100.00
20350;BME280;10332;50.208;18.988;2023-02-12T02:33:52;99364.69;;;6.11;100.00
20350;BME280;10332;50.208;18.988;2023-02-12T02:42:24;99371.34;;;6.19;100.00
20350;BME280;10332;50.208;18.988;2023-02-12T02:45:05;99372.91;;;6.25;100.00
20350;BME280;10332;50.208;18.988;2023-02-12T02:47:44;99372.38;;;6.14;100.00
20350;BME280;10332;50.208;18.988;2023-02-12T02:50:19;99387.22;;;6.09;100.00
20350;BME280;10332;50.208;18.988;2023-02-12T02:53:05;99384.72;;;6.06;100.00
20350;BME280;10332;50.208;18.988;2023-02-12T02:55:42;99373.41;;;6.08;100.00
20350;BME280;10332;50.208;18.988;2023-02-12T02:58:19;99374.34;;;6.06;100.00
20350;BME280;10332;50.208;18.988;2023-02-12T03:01:23;99383.06;;;6.03;100.00
20350;BME280;10332;50.208;18.988;2023-02-12T03:04:22;99400.22;;;6.07;100.00
20350;BME280;10332;50.208;18.988;2023-02-12T03:07:05;99396.63;;;6.13;100.00
20350;BME280;10332;50.208;18.988;2023-02-12T03:09:44;99402.44;;;6.19;100.00
20350;BME280;10332;50.208;18.988;2023-02-12T03:12:27;99402.28;;;6.25;100.00
20350;BME280;10332;50.208;18.988;2023-02-12T03:15:13;99410.09;;;6.24;100.00
20350;BME280;10332;50.208;18.988;2023-02-12T03:17:46;99414.72;;;6.14;100.00
20350;BME280;10332;50.208;18.988;2023-02-12T03:20:22;99410.91;;;6.26;100.00
20350;BME280;10332;50.208;18.988;2023-02-12T03:23:32;99437.69;;;6.26;100.00
20350;BME280;10332;50.208;18.988;2023-02-12T03:26:10;99434.34;;;6.23;100.00
20350;BME280;10332;50.208;18.988;2023-02-12T03:28:39;99450.59;;;6.30;100.00
20350;BME280;10332;50.208;18.988;2023-02-12T03:31:37;99449.75;;;6.28;100.00
20350;BME280;10332;50.208;18.988;2023-02-12T03:37:32;99451.59;;;6.24;100.00
20350;BME280;10332;50.208;18.988;2023-02-12T03:40:22;99454.03;;;6.29;100.00
20350;BME280;10332;50.208;18.988;2023-02-12T03:43:13;99460.31;;;6.21;100.00
20350;BME280;10332;50.208;18.988;2023-02-12T03:46:07;99466.44;;;6.19;100.00
20350;BME280;10332;50.208;18.988;2023-02-12T03:51:34;99480.97;;;6.24;100.00
20350;BME280;10332;50.208;18.988;2023-02-12T03:54:05;99481.72;;;6.28;100.00
20350;BME280;10332;50.208;18.988;2023-02-12T03:59:24;99489.44;;;6.31;100.00
20350;BME280;10332;50.208;18.988;2023-02-12T04:01:55;99494.63;;;6.31;100.00
20350;BME280;10332;50.208;18.988;2023-02-12T04:04:25;99498.97;;;6.31;100.00
20350;BME280;10332;50.208;18.988;2023-02-12T04:06:53;99507.50;;;6.34;100.00
20350;BME280;10332;50.208;18.988;2023-02-12T04:09:25;99515.19;;;6.37;100.00
20350;BME280;10332;50.208;18.988;2023-02-12T04:23:53;99523.75;;;6.41;100.00
20350;BME280;10332;50.208;18.988;2023-02-12T04:26:38;99530.75;;;6.37;100.00
20350;BME280;10332;50.208;18.988;2023-02-12T04:32:13;99530.75;;;6.37;100.00
20350;BME280;10332;50.208;18.988;2023-02-12T04:37:50;99532.47;;;6.38;100.00
20350;BME280;10332;50.208;18.988;2023-02-12T04:40:21;99533.28;;;6.40;100.00
20350;BME280;10332;50.208;18.988;2023-02-12T04:42:51;99539.13;;;6.47;100.00
20350;BME280;10332;50.208;18.988;2023-02-12T04:45:26;99540.97;;;6.43;100.00
20350;BME280;10332;50.208;18.988;2023-02-12T04:47:54;99551.28;;;6.45;100.00
20350;BME280;10332;50.208;18.988;2023-02-12T04:50:22;99551.34;;;6.43;100.00
20350;BME280;10332;50.208;18.988;2023-02-12T04:52:51;99558.41;;;6.38;100.00
20350;BME280;10332;50.208;18.988;2023-02-12T04:55:19;99559.25;;;6.39;100.00
20350;BME280;10332;50.208;18.988;2023-02-12T04:57:46;99562.69;;;6.39;100.00
20350;BME280;10332;50.208;18.988;2023-02-12T05:00:15;99561.84;;;6.39;100.00
20350;BME280;10332;50.208;18.988;2023-02-12T05:02:42;99568.75;;;6.40;100.00
20350;BME280;10332;50.208;18.988;2023-02-12T05:05:10;99576.47;;;6.41;100.00
20350;BME280;10332;50.208;18.988;2023-02-12T05:07:37;99580.84;;;6.39;100.00
20350;BME280;10332;50.208;18.988;2023-02-12T05:10:06;99585.19;;;6.39;100.00
20350;BME280;10332;50.208;18.988;2023-02-12T05:12:33;99574.72;;;6.42;100.00
20350;BME280;10332;50.208;18.988;2023-02-12T05:15:01;99581.72;;;6.40;100.00
20350;BME280;10332;50.208;18.988;2023-02-12T05:17:28;99587.78;;;6.39;100.00
20350;BME280;10332;50.208;18.988;2023-02-12T05:19:55;99582.63;;;6.37;100.00
20350;BME280;10332;50.208;18.988;2023-02-12T05:22:23;99585.22;;;6.37;100.00
20350;BME280;10332;50.208;18.988;2023-02-12T05:24:50;99592.16;;;6.37;100.00
20350;BME280;10332;50.208;18.988;2023-02-12T05:27:18;99602.50;;;6.38;100.00
20350;BME280;10332;50.208;18.988;2023-02-12T05:29:45;99599.13;;;6.35;100.00
20350;BME280;10332;50.208;18.988;2023-02-12T05:32:13;99611.09;;;6.40;100.00
20350;BME280;10332;50.208;18.988;2023-02-12T05:34:40;99610.28;;;6.38;100.00
20350;BME280;10332;50.208;18.988;2023-02-12T05:37:08;99613.00;;;6.34;100.00
20350;BME280;10332;50.208;18.988;2023-02-12T05:39:35;99610.34;;;6.35;100.00
20350;BME280;10332;50.208;18.988;2023-02-12T05:42:03;99615.78;;;6.26;100.00
20350;BME280;10332;50.208;18.988;2023-02-12T05:44:30;99619.19;;;6.28;100.00
20350;BME280;10332;50.208;18.988;2023-02-12T05:46:58;99625.31;;;6.25;100.00
20350;BME280;10332;50.208;18.988;2023-02-12T05:49:25;99625.09;;;6.33;100.00
20350;BME280;10332;50.208;18.988;2023-02-12T05:51:53;99633.81;;;6.31;100.00
20350;BME280;10332;50.208;18.988;2023-02-12T05:54:20;99638.13;;;6.32;100.00
20350;BME280;10332;50.208;18.988;2023-02-12T05:56:47;99642.28;;;6.37;100.00
20350;BME280;10332;50.208;18.988;2023-02-12T05:59:20;99649.22;;;6.37;100.00
20350;BME280;10332;50.208;18.988;2023-02-12T06:01:50;99654.41;;;6.37;100.00
20350;BME280;10332;50.208;18.988;2023-02-12T06:04:26;99660.63;;;6.31;99.87
20350;BME280;10332;50.208;18.988;2023-02-12T06:06:55;99665.63;;;6.37;100.00
20350;BME280;10332;50.208;18.988;2023-02-12T06:09:23;99662.16;;;6.38;99.81
20350;BME280;10332;50.208;18.988;2023-02-12T06:11:51;99677.72;;;6.38;99.65
20350;BME280;10332;50.208;18.988;2023-02-12T06:14:20;99672.59;;;6.35;99.63
20350;BME280;10332;50.208;18.988;2023-02-12T06:16:49;99682.94;;;6.37;99.50
20350;BME280;10332;50.208;18.988;2023-02-12T06:19:19;99685.38;;;6.43;99.35
20350;BME280;10332;50.208;18.988;2023-02-12T06:21:46;99691.28;;;6.49;98.99
20350;BME280;10332;50.208;18.988;2023-02-12T06:24:15;99688.63;;;6.51;98.69
20350;BME280;10332;50.208;18.988;2023-02-12T06:26:44;99700.00;;;6.45;98.63
20350;BME280;10332;50.208;18.988;2023-02-12T06:29:11;99697.50;;;6.42;98.56
20350;BME280;10332;50.208;18.988;2023-02-12T06:31:39;99702.59;;;6.45;98.65
20350;BME280;10332;50.208;18.988;2023-02-12T06:34:11;99708.63;;;6.46;98.58
20350;BME280;10332;50.208;18.988;2023-02-12T06:36:41;99712.09;;;6.46;98.27
20350;BME280;10332;50.208;18.988;2023-02-12T06:39:14;99710.28;;;6.50;98.25
20350;BME280;10332;50.208;18.988;2023-02-12T06:41:42;99706.97;;;6.43;97.92
20350;BME280;10332;50.208;18.988;2023-02-12T06:44:11;99722.09;;;6.26;97.34
20350;BME280;10332;50.208;18.988;2023-02-12T06:46:39;99729.88;;;6.26;97.49
20350;BME280;10332;50.208;18.988;2023-02-12T06:49:07;99723.22;;;6.16;97.23
20350;BME280;10332;50.208;18.988;2023-02-12T06:51:34;99732.84;;;6.11;96.81
20350;BME280;10332;50.208;18.988;2023-02-12T06:54:14;99739.63;;;6.16;96.25
20350;BME280;10332;50.208;18.988;2023-02-12T06:56:42;99743.25;;;6.09;95.06
20350;BME280;10332;50.208;18.988;2023-02-12T06:59:14;99744.91;;;6.13;94.49
20350;BME280;10332;50.208;18.988;2023-02-12T07:01:42;99745.75;;;6.14;94.41
20350;BME280;10332;50.208;18.988;2023-02-12T07:04:10;99753.22;;;6.26;94.14
20350;BME280;10332;50.208;18.988;2023-02-12T07:06:38;99750.59;;;6.29;93.64
20350;BME280;10332;50.208;18.988;2023-02-12T07:09:05;99751.00;;;6.48;93.15
20350;BME280;10332;50.208;18.988;2023-02-12T07:11:35;99757.69;;;6.55;92.26
20350;BME280;10332;50.208;18.988;2023-02-12T07:14:06;99760.50;;;6.47;92.18
20350;BME280;10332;50.208;18.988;2023-02-12T07:16:33;99763.34;;;6.38;90.86
20350;BME280;10332;50.208;18.988;2023-02-12T07:19:01;99761.19;;;6.18;89.70
20350;BME280;10332;50.208;18.988;2023-02-12T07:21:28;99762.09;;;6.17;88.76
20350;BME280;10332;50.208;18.988;2023-02-12T07:23:57;99768.28;;;6.10;89.14
20350;BME280;10332;50.208;18.988;2023-02-12T07:26:24;99765.53;;;6.18;88.34
20350;BME280;10332;50.208;18.988;2023-02-12T07:28:55;99779.31;;;6.20;88.06
20350;BME280;10332;50.208;18.988;2023-02-12T07:31:23;99778.44;;;6.21;88.07
20350;BME280;10332;50.208;18.988;2023-02-12T07:33:56;99775.69;;;6.27;86.55
20350;BME280;10332;50.208;18.988;2023-02-12T07:36:27;99786.94;;;6.26;86.72
20350;BME280;10332;50.208;18.988;2023-02-12T07:38:56;99790.22;;;6.34;86.07
20350;BME280;10332;50.208;18.988;2023-02-12T07:41:29;99794.97;;;6.52;86.05
20350;BME280;10332;50.208;18.988;2023-02-12T07:44:05;99799.69;;;6.71;85.24
20350;BME280;10332;50.208;18.988;2023-02-12T07:49:06;99811.06;;;7.33;83.50
20350;BME280;10332;50.208;18.988;2023-02-12T07:51:35;99810.03;;;7.70;82.92
20350;BME280;10332;50.208;18.988;2023-02-12T07:54:10;99817.56;;;7.79;81.98
20350;BME280;10332;50.208;18.988;2023-02-12T07:56:40;99823.53;;;7.83;80.22
20350;BME280;10332;50.208;18.988;2023-02-12T07:59:15;99827.28;;;7.73;79.29
20350;BME280;10332;50.208;18.988;2023-02-12T08:01:48;99828.09;;;8.04;78.76
20350;BME280;10332;50.208;18.988;2023-02-12T08:04:20;99827.19;;;8.35;76.86
20350;BME280;10332;50.208;18.988;2023-02-12T08:06:50;99828.97;;;8.33;76.58
20350;BME280;10332;50.208;18.988;2023-02-12T08:09:24;99831.66;;;8.30;74.58
20350;BME280;10332;50.208;18.988;2023-02-12T08:11:52;99839.81;;;8.17;73.12
20350;BME280;10332;50.208;18.988;2023-02-12T08:14:21;99841.25;;;8.84;71.50
20350;BME280;10332;50.208;18.988;2023-02-12T08:16:50;99852.50;;;9.60;69.71
20350;BME280;10332;50.208;18.988;2023-02-12T08:19:18;99852.94;;;9.73;68.66
20350;BME280;10332;50.208;18.988;2023-02-12T08:22:09;99860.63;;;9.76;67.14
20350;BME280;10332;50.208;18.988;2023-02-12T08:24:36;99854.50;;;9.77;65.90
20350;BME280;10332;50.208;18.988;2023-02-12T08:27:04;99857.56;;;9.88;65.00
20350;BME280;10332;50.208;18.988;2023-02-12T08:29:32;99862.91;;;9.85;63.83
20350;BME280;10332;50.208;18.988;2023-02-12T08:32:02;99864.38;;;10.39;63.23
20350;BME280;10332;50.208;18.988;2023-02-12T08:34:33;99862.00;;;10.99;61.31
20350;BME280;10332;50.208;18.988;2023-02-12T08:37:03;99866.06;;;12.06;57.22
20350;BME280;10332;50.208;18.988;2023-02-12T08:39:31;99856.97;;;12.51;55.10
20350;BME280;10332;50.208;18.988;2023-02-12T08:41:59;99859.03;;;13.84;51.74
20350;BME280;10332;50.208;18.988;2023-02-12T08:44:28;99862.25;;;15.44;48.27
20350;BME280;10332;50.208;18.988;2023-02-12T08:46:56;99855.72;;;16.64;46.20
20350;BME280;10332;50.208;18.988;2023-02-12T08:49:27;99859.47;;;17.79;43.10
20350;BME280;10332;50.208;18.988;2023-02-12T08:51:58;99854.94;;;20.94;38.73
20350;BME280;10332;50.208;18.988;2023-02-12T08:54:28;99865.72;;;20.16;37.83
20350;BME280;10332;50.208;18.988;2023-02-12T08:56:58;99861.56;;;21.83;34.37
20350;BME280;10332;50.208;18.988;2023-02-12T08:59:27;99873.22;;;22.13;33.37
20350;BME280;10332;50.208;18.988;2023-02-12T09:01:55;99876.16;;;20.39;35.01
20350;BME280;10332;50.208;18.988;2023-02-12T09:04:25;99877.03;;;22.20;33.29
20350;BME280;10332;50.208;18.988;2023-02-12T09:06:54;99870.63;;;25.32;29.75
20350;BME280;10332;50.208;18.988;2023-02-12T09:09:22;99872.84;;;24.66;28.11
20350;BME280;10332;50.208;18.988;2023-02-12T09:11:50;99875.69;;;23.90;29.44
20350;BME280;10332;50.208;18.988;2023-02-12T09:14:19;99881.78;;;22.16;30.38
20350;BME280;10332;50.208;18.988;2023-02-12T09:16:51;99881.28;;;21.80;31.27
20350;BME280;10332;50.208;18.988;2023-02-12T09:19:20;99890.38;;;23.08;28.96
20350;BME280;10332;50.208;18.988;2023-02-12T09:21:54;99894.63;;;23.30;28.68
20350;BME280;10332;50.208;18.988;2023-02-12T09:24:25;99890.06;;;26.12;26.78
20350;BME280;10332;50.208;18.988;2023-02-12T09:26:54;99899.25;;;30.22;23.61
20350;BME280;10332;50.208;18.988;2023-02-12T09:29:22;99901.03;;;32.29;22.35
20350;BME280;10332;50.208;18.988;2023-02-12T09:31:50;99896.84;;;29.23;22.34
20350;BME280;10332;50.208;18.988;2023-02-12T09:34:17;99906.53;;;32.90;20.37
20350;BME280;10332;50.208;18.988;2023-02-12T09:36:45;99912.00;;;33.83;19.79
20350;BME280;10332;50.208;18.988;2023-02-12T09:39:12;99914.41;;;36.38;17.85
20350;BME280;10332;50.208;18.988;2023-02-12T09:42:13;99918.94;;;37.88;16.14
20350;BME280;10332;50.208;18.988;2023-02-12T09:45:20;99924.50;;;39.76;14.86
20350;BME280;10332;50.208;18.988;2023-02-12T09:47:59;99925.84;;;40.51;13.87
20350;BME280;10332;50.208;18.988;2023-02-12T09:50:36;99927.31;;;41.34;13.79
20350;BME280;10332;50.208;18.988;2023-02-12T09:53:15;99921.97;;;41.92;13.24
20350;BME280;10332;50.208;18.988;2023-02-12T09:55:44;99927.63;;;42.90;12.36
20350;BME280;10332;50.208;18.988;2023-02-12T09:58:37;99934.28;;;42.99;12.18
20350;BME280;10332;50.208;18.988;2023-02-12T10:01:14;99930.28;;;42.55;11.60
20350;BME280;10332;50.208;18.988;2023-02-12T10:03:43;99932.91;;;43.07;11.53
20350;BME280;10332;50.208;18.988;2023-02-12T10:06:21;99933.03;;;44.43;10.64
20350;BME280;10332;50.208;18.988;2023-02-12T10:12:19;99922.25;;;41.90;11.31
20350;BME280;10332;50.208;18.988;2023-02-12T10:20:47;99931.34;;;39.95;12.57
20350;BME280;10332;50.208;18.988;2023-02-12T10:26:38;99941.47;;;43.87;10.60
20350;BME280;10332;50.208;18.988;2023-02-12T10:29:36;99942.41;;;42.69;10.91
20350;BME280;10332;50.208;18.988;2023-02-12T10:32:32;99931.28;;;43.57;10.88
20350;BME280;10332;50.208;18.988;2023-02-12T10:35:14;99941.34;;;46.19;9.78
20350;BME280;10332;50.208;18.988;2023-02-12T10:37:57;99942.88;;;47.29;9.05
20350;BME280;10332;50.208;18.988;2023-02-12T10:40:32;99945.66;;;47.62;8.81
20350;BME280;10332;50.208;18.988;2023-02-12T10:43:01;99940.19;;;48.94;8.80
20350;BME280;10332;50.208;18.988;2023-02-12T10:45:34;99939.66;;;49.28;8.94
20350;BME280;10332;50.208;18.988;2023-02-12T10:48:12;99940.38;;;49.65;8.18
20350;BME280;10332;50.208;18.988;2023-02-12T10:53:42;99940.72;;;47.59;8.59
20350;BME280;10332;50.208;18.988;2023-02-12T10:56:21;99931.94;;;46.62;9.18
20350;BME280;10332;50.208;18.988;2023-02-12T10:58:56;99930.47;;;46.03;8.90
20350;BME280;10332;50.208;18.988;2023-02-12T11:01:30;99940.16;;;46.91;8.26
20350;BME280;10332;50.208;18.988;2023-02-12T11:04:25;99920.84;;;45.72;8.57
20350;BME280;10332;50.208;18.988;2023-02-12T11:07:07;99925.59;;;44.93;8.87
20350;BME280;10332;50.208;18.988;2023-02-12T11:09:40;99933.00;;;46.48;9.29
20350;BME280;10332;50.208;18.988;2023-02-12T11:12:39;99925.88;;;39.95;11.28
20350;BME280;10332;50.208;18.988;2023-02-12T11:15:26;99924.66;;;38.50;11.50
20350;BME280;10332;50.208;18.988;2023-02-12T11:18:01;99923.75;;;39.30;11.84
20350;BME280;10332;50.208;18.988;2023-02-12T11:20:50;99919.53;;;41.26;11.02
20350;BME280;10332;50.208;18.988;2023-02-12T11:26:22;99920.75;;;44.05;9.87
20350;BME280;10332;50.208;18.988;2023-02-12T11:28:57;99923.03;;;43.52;9.85
20350;BME280;10332;50.208;18.988;2023-02-12T11:31:33;99922.31;;;41.68;10.59
20350;BME280;10332;50.208;18.988;2023-02-12T11:34:15;99907.16;;;37.53;12.40
20350;BME280;10332;50.208;18.988;2023-02-12T11:36:52;99918.75;;;35.60;13.75
20350;BME280;10332;50.208;18.988;2023-02-12T11:39:34;99916.00;;;35.84;13.32
20350;BME280;10332;50.208;18.988;2023-02-12T11:42:19;99923.00;;;36.17;13.16
20350;BME280;10332;50.208;18.988;2023-02-12T11:44:54;99917.13;;;34.44;14.36
20350;BME280;10332;50.208;18.988;2023-02-12T11:47:29;99920.63;;;31.47;16.39
20350;BME280;10332;50.208;18.988;2023-02-12T11:50:08;99926.47;;;32.07;15.93
20350;BME280;10332;50.208;18.988;2023-02-12T11:52:42;99917.91;;;29.11;18.12
20350;BME280;10332;50.208;18.988;2023-02-12T11:55:33;99914.88;;;30.12;17.75
20350;BME280;10332;50.208;18.988;2023-02-12T11:58:20;99906.50;;;32.97;15.74
20350;BME280;10332;50.208;18.988;2023-02-12T12:01:28;99911.38;;;34.65;14.89
20350;BME280;10332;50.208;18.988;2023-02-12T12:04:05;99926.56;;;34.80;14.91
20350;BME280;10332;50.208;18.988;2023-02-12T12:06:47;99919.13;;;31.45;16.58
20350;BME280;10332;50.208;18.988;2023-02-12T12:09:23;99910.13;;;30.14;18.08
20350;BME280;10332;50.208;18.988;2023-02-12T12:14:47;99914.38;;;24.50;22.65
20350;BME280;10332;50.208;18.988;2023-02-12T12:17:53;99916.78;;;23.21;24.07
20350;BME280;10332;50.208;18.988;2023-02-12T12:20:51;99921.38;;;22.40;25.00
20350;BME280;10332;50.208;18.988;2023-02-12T12:23:48;99924.13;;;20.81;26.48
20350;BME280;10332;50.208;18.988;2023-02-12T12:26:30;99922.50;;;20.35;27.63
20350;BME280;10332;50.208;18.988;2023-02-12T12:29:43;99918.72;;;19.47;28.79
20350;BME280;10332;50.208;18.988;2023-02-12T12:32:17;99915.72;;;19.87;28.45
20350;BME280;10332;50.208;18.988;2023-02-12T12:34:47;99919.34;;;19.50;28.94
20350;BME280;10332;50.208;18.988;2023-02-12T12:46:37;99923.41;;;15.94;35.38
20350;BME280;10332;50.208;18.988;2023-02-12T12:49:31;99931.00;;;15.40;36.11
20350;BME280;10332;50.208;18.988;2023-02-12T13:09:10;99944.22;;;12.72;42.88
20350;BME280;10332;50.208;18.988;2023-02-12T13:18:00;99939.19;;;11.90;45.69
20350;BME280;10332;50.208;18.988;2023-02-12T13:23:38;99936.91;;;11.83;46.75
20350;BME280;10332;50.208;18.988;2023-02-12T13:26:55;99937.97;;;12.18;45.94
20350;BME280;10332;50.208;18.988;2023-02-12T13:33:11;99924.44;;;13.37;44.01
20350;BME280;10332;50.208;18.988;2023-02-12T13:35:45;99929.31;;;14.12;42.87
20350;BME280;10332;50.208;18.988;2023-02-12T13:38:20;99927.25;;;15.14;40.77
20350;BME280;10332;50.208;18.988;2023-02-12T13:41:02;99931.19;;;15.67;39.85
20350;BME280;10332;50.208;18.988;2023-02-12T13:46:43;99934.38;;;15.42;39.53
20350;BME280;10332;50.208;18.988;2023-02-12T13:49:36;99923.13;;;15.98;39.42
20350;BME280;10332;50.208;18.988;2023-02-12T13:52:44;99932.00;;;16.11;38.46
20350;BME280;10332;50.208;18.988;2023-02-12T13:55:46;99932.91;;;18.37;35.04
20350;BME280;10332;50.208;18.988;2023-02-12T14:01:42;99932.88;;;20.61;31.55
20350;BME280;10332;50.208;18.988;2023-02-12T14:06:58;99922.19;;;20.83;31.14
20350;BME280;10332;50.208;18.988;2023-02-12T14:09:38;99925.59;;;22.52;28.68
20350;BME280;10332;50.208;18.988;2023-02-12T14:12:31;99932.25;;;22.67;28.13
20350;BME280;10332;50.208;18.988;2023-02-12T14:15:20;99922.53;;;21.96;28.84
20350;BME280;10332;50.208;18.988;2023-02-12T14:20:34;99939.84;;;20.73;30.11
20350;BME280;10332;50.208;18.988;2023-02-12T14:23:26;99930.41;;;19.68;31.26
20350;BME280;10332;50.208;18.988;2023-02-12T14:28:49;99937.53;;;18.72;32.78
20350;BME280;10332;50.208;18.988;2023-02-12T14:34:35;99932.94;;;17.86;34.20
20350;BME280;10332;50.208;18.988;2023-02-12T14:36:49;99937.25;;;16.95;35.43
20350;BME280;10332;50.208;18.988;2023-02-12T14:39:35;99935.91;;;15.90;37.23
20350;BME280;10332;50.208;18.988;2023-02-12T14:44:43;99948.16;;;14.69;38.77
20350;BME280;10332;50.208;18.988;2023-02-12T14:49:51;99950.41;;;13.07;42.98
20350;BME280;10332;50.208;18.988;2023-02-12T14:52:30;99943.78;;;12.62;43.22
20350;BME280;10332;50.208;18.988;2023-02-12T14:55:07;99942.72;;;12.29;44.81
20350;BME280;10332;50.208;18.988;2023-02-12T14:57:45;99945.13;;;12.14;45.38
20350;BME280;10332;50.208;18.988;2023-02-12T15:05:46;99945.69;;;11.82;47.07
20350;BME280;10332;50.208;18.988;2023-02-12T15:08:34;99941.13;;;13.53;44.11
20350;BME280;10332;50.208;18.988;2023-02-12T15:11:45;99945.06;;;14.45;41.93
20350;BME280;10332;50.208;18.988;2023-02-12T15:14:22;99945.66;;;14.17;41.78
20350;BME280;10332;50.208;18.988;2023-02-12T15:17:12;99939.47;;;14.03;41.74
20350;BME280;10332;50.208;18.988;2023-02-12T15:19:51;99950.78;;;14.36;41.47
20350;BME280;10332;50.208;18.988;2023-02-12T15:22:30;99942.06;;;14.20;41.61
20350;BME280;10332;50.208;18.988;2023-02-12T15:25:28;99954.25;;;13.36;43.00
20350;BME280;10332;50.208;18.988;2023-02-12T15:28:00;99950.22;;;13.29;43.25
20350;BME280;10332;50.208;18.988;2023-02-12T15:30:33;99938.59;;;13.16;43.49
20350;BME280;10332;50.208;18.988;2023-02-12T15:33:05;99949.22;;;12.58;44.37
20350;BME280;10332;50.208;18.988;2023-02-12T15:35:37;99951.53;;;12.07;45.50
20350;BME280;10332;50.208;18.988;2023-02-12T15:38:06;99941.72;;;11.72;46.31
20350;BME280;10332;50.208;18.988;2023-02-12T15:40:34;99949.97;;;11.42;46.80
20350;BME280;10332;50.208;18.988;2023-02-12T15:43:05;99957.41;;;11.09;47.99
20350;BME280;10332;50.208;18.988;2023-02-12T15:45:35;99960.38;;;10.78;48.59
20350;BME280;10332;50.208;18.988;2023-02-12T15:48:12;99958.72;;;10.54;49.16
20350;BME280;10332;50.208;18.988;2023-02-12T15:51:13;99957.19;;;10.25;49.94
20350;BME280;10332;50.208;18.988;2023-02-12T15:53:43;99955.16;;;10.08;50.05